createdAt,value
2023-05-14T00:00:29.428Z,16.26
2023-05-14T00:02:56.434Z,16.20
2023-05-14T00:05:23.363Z,16.20
2023-05-14T00:07:50.084Z,16.27
2023-05-14T00:10:19.120Z,16.20
2023-05-14T00:12:45.968Z,16.09
2023-05-14T00:15:12.726Z,15.98
2023-05-14T00:17:39.437Z,15.96
2023-05-14T00:20:09.411Z,15.72
2023-05-14T00:22:37.274Z,15.70
2023-05-14T00:25:04.609Z,15.62
2023-05-14T00:27:31.258Z,15.60
2023-05-14T00:29:57.898Z,15.19
2023-05-14T00:32:24.961Z,14.77
2023-05-14T00:34:51.616Z,14.71
2023-05-14T00:37:18.215Z,14.62
2023-05-14T00:39:44.908Z,14.20
2023-05-14T00:42:11.625Z,14.35
2023-05-14T00:44:38.341Z,14.49
2023-05-14T00:47:05.482Z,14.22
2023-05-14T00:49:32.430Z,14.21
2023-05-14T00:52:00.574Z,14.12
2023-05-14T00:54:28.425Z,14.50
2023-05-14T00:56:55.331Z,14.77
2023-05-14T00:59:22.005Z,14.98
2023-05-14T01:01:48.672Z,15.13
2023-05-14T01:04:15.972Z,15.27
2023-05-14T01:06:48.812Z,15.55
2023-05-14T01:09:25.864Z,15.78
2023-05-14T01:12:09.036Z,15.80
2023-05-14T01:14:54.336Z,15.76
2023-05-14T01:17:23.020Z,15.69
2023-05-14T01:19:50.461Z,15.76
2023-05-14T01:22:17.131Z,15.93
2023-05-14T01:24:43.923Z,15.88
2023-05-14T01:27:30.249Z,15.87
2023-05-14T01:30:15.841Z,15.66
2023-05-14T01:32:45.255Z,15.69
2023-05-14T01:35:13.046Z,15.65
2023-05-14T01:37:41.241Z,15.68
2023-05-14T01:40:09.840Z,15.79
2023-05-14T01:42:37.634Z,15.81
2023-05-14T01:45:05.168Z,15.73
2023-05-14T01:47:31.976Z,15.73
2023-05-14T01:49:58.734Z,15.59
2023-05-14T01:52:25.448Z,15.61
2023-05-14T01:54:52.148Z,15.38
2023-05-14T01:57:20.128Z,15.60
2023-05-14T01:59:46.881Z,15.67
2023-05-14T02:02:13.529Z,15.89
2023-05-14T02:04:40.316Z,16.29
2023-05-14T02:07:06.956Z,16.32
2023-05-14T02:09:33.721Z,16.18
2023-05-14T02:12:00.432Z,15.99
2023-05-14T02:14:27.058Z,16.18
2023-05-14T02:16:53.809Z,16.75
2023-05-14T02:19:20.572Z,16.19
2023-05-14T02:21:48.138Z,16.16
2023-05-14T02:24:14.993Z,16.74
2023-05-14T02:26:42.298Z,16.63
2023-05-14T02:29:09.197Z,16.82
2023-05-14T02:31:36.013Z,16.81
2023-05-14T02:34:03.974Z,16.47
2023-05-14T02:36:30.887Z,15.88
2023-05-14T02:38:59.278Z,15.95
2023-05-14T02:41:25.931Z,15.54
2023-05-14T02:43:53.526Z,15.29
2023-05-14T02:46:20.365Z,15.27
2023-05-14T02:48:46.995Z,15.95
2023-05-14T02:51:13.685Z,15.84
2023-05-14T02:53:40.572Z,15.92
2023-05-14T02:56:08.278Z,15.50
2023-05-14T02:58:35.004Z,15.24
2023-05-14T03:01:01.832Z,15.21
2023-05-14T03:03:30.104Z,15.31
2023-05-14T03:05:57.373Z,15.02
2023-05-14T03:08:24.159Z,15.26
2023-05-14T03:10:50.993Z,15.72
2023-05-14T03:13:20.059Z,15.90
2023-05-14T03:15:47.597Z,16.22
2023-05-14T03:18:15.189Z,16.37
2023-05-14T03:20:42.198Z,16.24
2023-05-14T03:23:08.892Z,16.38
2023-05-14T03:25:35.604Z,16.38
2023-05-14T03:28:03.645Z,16.36
2023-05-14T03:30:30.692Z,16.37
2023-05-14T03:32:57.588Z,16.70
2023-05-14T03:35:24.416Z,17.08
2023-05-14T03:37:52.953Z,17.17
2023-05-14T03:40:19.609Z,17.31
2023-05-14T03:42:46.460Z,17.37
2023-05-14T03:45:13.098Z,17.36
2023-05-14T03:47:39.797Z,17.25
2023-05-14T03:50:07.509Z,17.28
2023-05-14T03:52:34.255Z,17.37
2023-05-14T03:55:00.912Z,17.34
2023-05-14T03:57:27.523Z,17.42
2023-05-14T03:59:54.130Z,17.50
2023-05-14T04:02:20.802Z,17.64
2023-05-14T04:04:47.541Z,17.76
2023-05-14T04:07:14.483Z,17.63
2023-05-14T04:09:41.146Z,17.89
2023-05-14T04:12:08.272Z,18.01
2023-05-14T04:14:34.933Z,18.03
2023-05-14T04:17:01.561Z,18.12
2023-05-14T04:19:28.341Z,18.23
2023-05-14T04:21:55.177Z,18.40
2023-05-14T04:24:24.484Z,18.37
2023-05-14T04:26:51.198Z,18.60
2023-05-14T04:29:17.829Z,18.92
2023-05-14T04:31:44.760Z,18.59
2023-05-14T04:34:11.597Z,18.09
2023-05-14T04:36:38.259Z,18.91
2023-05-14T04:39:06.111Z,17.87
2023-05-14T04:41:32.872Z,18.16
2023-05-14T04:44:01.592Z,18.08
2023-05-14T04:46:28.773Z,18.15
2023-05-14T04:48:56.588Z,18.26
2023-05-14T04:51:24.041Z,19.55
2023-05-14T04:53:50.697Z,19.79
2023-05-14T04:56:17.329Z,19.74
2023-05-14T04:58:44.049Z,19.69
2023-05-14T05:01:10.705Z,19.82
2023-05-14T05:03:37.438Z,19.61
2023-05-14T05:06:04.370Z,19.58
2023-05-14T05:08:30.986Z,20.67
2023-05-14T05:10:57.594Z,20.20
2023-05-14T05:13:24.239Z,20.16
2023-05-14T05:15:51.236Z,20.89
2023-05-14T05:18:17.871Z,21.24
2023-05-14T05:20:44.503Z,20.89
2023-05-14T05:23:11.243Z,21.46
2023-05-14T05:25:37.937Z,21.93
2023-05-14T05:28:04.765Z,21.94
2023-05-14T05:30:31.510Z,22.91
2023-05-14T05:32:58.449Z,22.72
2023-05-14T05:35:25.238Z,22.42
2023-05-14T05:37:51.919Z,21.62
2023-05-14T05:40:19.172Z,20.87
2023-05-14T05:42:45.922Z,20.65
2023-05-14T05:45:12.617Z,20.87
2023-05-14T05:47:39.320Z,20.57
2023-05-14T05:50:07.660Z,20.27
2023-05-14T05:52:34.453Z,20.66
2023-05-14T05:55:01.167Z,20.64
2023-05-14T05:57:27.956Z,20.83
2023-05-14T05:59:54.692Z,20.82
2023-05-14T06:02:21.592Z,20.53
2023-05-14T06:04:48.762Z,20.35
2023-05-14T06:07:15.496Z,20.31
2023-05-14T06:09:42.269Z,20.51
2023-05-14T06:12:09.213Z,20.48
2023-05-14T06:14:35.865Z,20.82
2023-05-14T06:17:02.624Z,21.17
2023-05-14T06:19:29.408Z,20.85
2023-05-14T06:21:56.143Z,20.64
2023-05-14T06:24:22.726Z,20.77
2023-05-14T06:26:49.501Z,20.91
2023-05-14T06:29:16.173Z,20.80
2023-05-14T06:31:43.004Z,21.09
2023-05-14T06:34:09.649Z,20.64
2023-05-14T06:36:36.309Z,20.99
2023-05-14T06:39:03.712Z,21.03
2023-05-14T06:41:30.451Z,20.83
2023-05-14T06:43:57.809Z,20.79
2023-05-14T06:46:24.457Z,20.55
2023-05-14T06:48:51.169Z,20.92
2023-05-14T06:51:17.831Z,21.09
2023-05-14T06:53:44.555Z,20.82
2023-05-14T06:56:11.431Z,20.86
2023-05-14T06:58:38.093Z,21.09
2023-05-14T07:01:05.189Z,21.32
2023-05-14T07:03:32.808Z,21.50
2023-05-14T07:05:59.449Z,21.45
2023-05-14T07:08:26.191Z,22.04
2023-05-14T07:10:52.867Z,22.28
2023-05-14T07:13:19.530Z,22.49
2023-05-14T07:15:46.148Z,22.46
2023-05-14T07:18:12.792Z,22.83
2023-05-14T07:20:39.621Z,22.59
2023-05-14T07:23:06.341Z,22.29
2023-05-14T07:25:32.990Z,22.30
2023-05-14T07:27:59.632Z,22.70
2023-05-14T07:30:26.465Z,22.64
2023-05-14T07:32:53.334Z,22.52
2023-05-14T07:35:20.279Z,22.16
2023-05-14T07:37:48.913Z,22.54
2023-05-14T07:40:15.879Z,22.50
2023-05-14T07:42:42.527Z,22.16
2023-05-14T07:45:10.045Z,22.32
2023-05-14T07:47:36.798Z,22.36
2023-05-14T07:50:03.682Z,22.06
2023-05-14T07:52:30.415Z,22.15
2023-05-14T07:54:57.131Z,21.97
2023-05-14T07:57:23.757Z,22.06
2023-05-14T07:59:50.519Z,21.92
2023-05-14T08:02:17.860Z,22.21
2023-05-14T08:04:45.096Z,21.83
2023-05-14T08:07:12.004Z,22.05
2023-05-14T08:09:38.846Z,22.40
2023-05-14T08:12:06.282Z,22.45
2023-05-14T08:14:32.973Z,22.31
2023-05-14T08:16:59.687Z,22.24
2023-05-14T08:19:27.563Z,21.95
2023-05-14T08:21:54.385Z,21.84
2023-05-14T08:24:21.483Z,21.89
2023-05-14T08:26:48.156Z,22.33
2023-05-14T08:29:16.596Z,22.64
2023-05-14T08:31:43.809Z,22.59
2023-05-14T08:34:10.934Z,22.40
2023-05-14T08:36:38.887Z,22.40
2023-05-14T08:39:07.870Z,22.45
2023-05-14T08:41:35.103Z,22.13
2023-05-14T08:44:21.442Z,22.36
2023-05-14T08:46:49.876Z,22.69
2023-05-14T08:49:41.855Z,22.96
2023-05-14T08:52:12.056Z,23.09
2023-05-14T08:54:40.420Z,22.93
2023-05-14T08:57:09.787Z,22.42
2023-05-14T08:59:36.713Z,22.47
2023-05-14T09:02:06.530Z,22.73
2023-05-14T09:04:33.919Z,23.07
2023-05-14T09:07:02.127Z,23.12
2023-05-14T09:09:28.995Z,23.03
2023-05-14T09:11:56.101Z,22.72
2023-05-14T09:14:23.479Z,22.46
2023-05-14T09:16:51.617Z,22.29
2023-05-14T09:19:19.501Z,22.59
2023-05-14T09:21:47.585Z,22.89
2023-05-14T09:24:22.031Z,23.24
2023-05-14T09:26:57.289Z,22.79
2023-05-14T09:29:28.864Z,23.02
2023-05-14T09:31:56.822Z,22.97
2023-05-14T09:34:25.412Z,22.79
2023-05-14T09:37:02.742Z,22.88
2023-05-14T09:39:30.126Z,22.89
2023-05-14T09:41:57.824Z,22.75
2023-05-14T09:44:25.076Z,22.99
2023-05-14T09:46:52.978Z,23.07
2023-05-14T09:49:20.208Z,23.03
2023-05-14T09:51:47.539Z,22.69
2023-05-14T09:54:14.411Z,22.60
2023-05-14T09:56:49.257Z,22.82
2023-05-14T09:59:15.894Z,23.24
2023-05-14T10:01:44.011Z,23.90
2023-05-14T10:04:11.549Z,23.33
2023-05-14T10:06:39.140Z,23.17
2023-05-14T10:09:14.509Z,23.37
2023-05-14T10:11:44.300Z,23.63
2023-05-14T10:14:19.354Z,23.55
2023-05-14T10:16:51.677Z,23.84
2023-05-14T10:19:21.051Z,24.01
2023-05-14T10:21:57.015Z,24.34
2023-05-14T10:24:24.965Z,24.57
2023-05-14T10:26:51.852Z,24.64
2023-05-14T10:36:05.097Z,23.66
2023-05-14T10:38:37.034Z,24.22
2023-05-14T10:41:13.808Z,24.83
2023-05-14T10:43:41.866Z,23.97
2023-05-14T10:46:13.738Z,23.25
2023-05-14T10:48:44.006Z,23.14
2023-05-14T10:51:11.564Z,23.01
2023-05-14T10:53:41.828Z,23.07
2023-05-14T10:56:14.903Z,23.04
2023-05-14T10:58:52.516Z,23.40
2023-05-14T11:01:19.192Z,23.44
2023-05-14T11:03:47.004Z,22.84
2023-05-14T11:06:15.603Z,22.98
2023-05-14T11:08:42.954Z,23.31
2023-05-14T11:11:10.285Z,23.46
2023-05-14T11:13:36.978Z,23.89
2023-05-14T11:16:11.949Z,23.97
2023-05-14T11:18:53.848Z,23.68
2023-05-14T11:21:20.771Z,23.53
2023-05-14T11:23:47.446Z,23.47
2023-05-14T11:28:40.948Z,23.23
2023-05-14T11:31:07.949Z,23.11
2023-05-14T11:33:36.152Z,23.27
2023-05-14T11:36:02.929Z,23.71
2023-05-14T11:38:29.582Z,23.67
2023-05-14T11:40:57.580Z,23.36
2023-05-14T11:43:24.695Z,24.01
2023-05-14T11:45:52.772Z,23.32
2023-05-14T11:48:20.470Z,23.66
2023-05-14T11:50:52.024Z,23.42
2023-05-14T11:53:20.232Z,23.75
2023-05-14T11:55:47.769Z,24.09
2023-05-14T11:58:15.905Z,23.85
2023-05-14T12:00:45.435Z,23.17
2023-05-14T12:03:12.601Z,23.22
2023-05-14T12:05:39.748Z,23.15
2023-05-14T12:08:29.955Z,23.32
2023-05-14T12:10:58.822Z,23.72
2023-05-14T12:13:29.913Z,24.41
2023-05-14T12:15:58.315Z,24.97
2023-05-14T12:18:26.175Z,25.11
2023-05-14T12:20:53.095Z,24.94
2023-05-14T12:23:46.023Z,24.75
2023-05-14T12:26:12.732Z,24.49
2023-05-14T12:28:43.514Z,25.14
2023-05-14T12:31:10.524Z,25.42
2023-05-14T12:33:37.294Z,25.38
2023-05-14T12:36:20.633Z,24.51
2023-05-14T12:38:49.973Z,24.30
2023-05-14T12:41:17.917Z,24.33
2023-05-14T12:43:45.158Z,24.26
2023-05-14T12:46:11.834Z,24.30
2023-05-14T12:48:38.662Z,24.14
2023-05-14T12:51:05.666Z,24.09
2023-05-14T12:53:32.325Z,23.57
2023-05-14T12:55:59.149Z,23.32
2023-05-14T12:58:25.766Z,23.13
2023-05-14T13:00:52.515Z,23.45
2023-05-14T13:03:19.282Z,23.11
2023-05-14T13:05:45.951Z,23.33
2023-05-14T13:08:14.977Z,23.53
2023-05-14T13:10:41.783Z,24.01
2023-05-14T13:13:08.565Z,23.61
2023-05-14T13:15:36.393Z,23.46
2023-05-14T13:18:03.250Z,23.80
2023-05-14T13:20:32.507Z,23.48
2023-05-14T13:22:59.164Z,23.43
2023-05-14T13:25:26.235Z,23.36
2023-05-14T13:27:53.108Z,22.98
2023-05-14T13:30:20.221Z,22.80
2023-05-14T13:32:47.114Z,22.69
2023-05-14T13:35:14.381Z,23.16
2023-05-14T13:37:43.857Z,23.36
2023-05-14T13:40:11.090Z,23.22
2023-05-14T13:42:39.723Z,23.06
2023-05-14T13:45:07.104Z,23.32
2023-05-14T13:47:33.967Z,23.57
2023-05-14T13:50:00.622Z,23.52
2023-05-14T13:52:27.378Z,23.26
2023-05-14T13:54:54.215Z,23.27
2023-05-14T13:57:22.059Z,23.63
2023-05-14T13:59:49.014Z,23.61
2023-05-14T14:02:15.725Z,23.79
2023-05-14T14:04:42.415Z,23.38
2023-05-14T14:07:09.293Z,23.61
2023-05-14T14:09:36.988Z,23.88
2023-05-14T14:12:06.309Z,23.93
2023-05-14T14:14:33.070Z,23.91
2023-05-14T14:16:59.729Z,23.84
2023-05-14T14:19:26.323Z,23.96
2023-05-14T14:21:53.313Z,23.90
2023-05-14T14:24:20.377Z,23.88
2023-05-14T14:26:47.089Z,23.75
2023-05-14T14:29:13.872Z,23.28
2023-05-14T14:31:40.748Z,23.29
2023-05-14T14:34:07.524Z,23.63
2023-05-14T14:36:34.294Z,23.77
2023-05-14T14:39:01.086Z,23.67
2023-05-14T14:41:27.848Z,23.87
2023-05-14T14:43:54.466Z,24.03
2023-05-14T14:46:21.236Z,23.84
2023-05-14T14:48:47.987Z,23.48
2023-05-14T14:51:14.683Z,23.50
2023-05-14T14:53:41.419Z,23.61
2023-05-14T14:56:08.241Z,23.95
2023-05-14T14:58:35.023Z,24.29
2023-05-14T15:01:01.872Z,24.89
2023-05-14T15:03:29.077Z,25.01
2023-05-14T15:05:55.993Z,25.11
2023-05-14T15:08:27.494Z,25.62
2023-05-14T15:10:55.585Z,26.11
2023-05-14T15:13:22.244Z,26.31
2023-05-14T15:15:50.941Z,26.27
2023-05-14T15:18:17.657Z,25.44
2023-05-14T15:20:44.662Z,25.83
2023-05-14T15:23:11.743Z,25.93
2023-05-14T15:25:38.498Z,24.83
2023-05-14T15:28:06.444Z,23.96
2023-05-14T15:30:33.520Z,23.94
2023-05-14T15:33:00.204Z,24.28
2023-05-14T15:35:26.960Z,24.23
2023-05-14T15:37:56.100Z,24.86
2023-05-14T15:40:23.299Z,25.45
2023-05-14T15:42:50.224Z,25.11
2023-05-14T15:45:16.897Z,24.36
2023-05-14T15:47:45.232Z,24.45
2023-05-14T15:50:12.312Z,24.49
2023-05-14T15:52:39.462Z,24.51
2023-05-14T15:55:06.667Z,24.79
2023-05-14T15:57:33.629Z,24.77
2023-05-14T16:00:00.447Z,25.42
2023-05-14T16:02:30.536Z,24.69
2023-05-14T16:04:57.499Z,24.68
2023-05-14T16:07:24.317Z,24.78
2023-05-14T16:09:51.185Z,25.12
2023-05-14T16:12:18.117Z,24.96
2023-05-14T16:14:45.466Z,25.75
2023-05-14T16:17:12.584Z,26.18
2023-05-14T16:19:39.696Z,25.95
2023-05-14T16:22:06.616Z,25.54
2023-05-14T16:24:33.355Z,24.97
2023-05-14T16:27:00.886Z,25.56
2023-05-14T16:29:27.908Z,25.15
2023-05-14T16:31:54.879Z,25.33
2023-05-14T16:34:21.725Z,24.58
2023-05-14T16:36:48.557Z,24.55
2023-05-14T16:39:15.203Z,24.61
2023-05-14T16:41:41.881Z,24.27
2023-05-14T16:44:08.585Z,23.62
2023-05-14T16:46:35.375Z,23.27
2023-05-14T16:49:02.634Z,22.72
2023-05-14T16:51:29.421Z,22.43
2023-05-14T16:53:56.357Z,22.02
2023-05-14T16:56:23.210Z,22.03
2023-05-14T16:58:49.901Z,22.29
2023-05-14T17:01:16.650Z,22.54
2023-05-14T17:03:44.865Z,22.54
2023-05-14T17:06:11.797Z,22.49
2023-05-14T17:08:38.509Z,22.28
2023-05-14T17:11:06.053Z,22.48
2023-05-14T17:13:33.248Z,22.08
2023-05-14T17:16:00.765Z,22.21
2023-05-14T17:18:27.855Z,21.99
2023-05-14T17:20:54.561Z,21.67
2023-05-14T17:23:21.329Z,21.27
2023-05-14T17:25:48.083Z,20.95
2023-05-14T17:28:14.801Z,20.67
2023-05-14T17:30:41.608Z,20.38
2023-05-14T17:33:08.401Z,20.08
2023-05-14T17:35:36.455Z,19.90
2023-05-14T17:38:03.691Z,19.78
2023-05-14T17:40:30.506Z,19.57
2023-05-14T17:42:57.265Z,19.53
2023-05-14T17:45:24.275Z,19.47
2023-05-14T17:47:51.507Z,19.37
2023-05-14T17:50:19.094Z,19.30
2023-05-14T17:52:46.251Z,19.20
2023-05-14T17:55:13.194Z,19.05
2023-05-14T17:57:40.106Z,18.97
2023-05-14T18:00:07.735Z,19.07
2023-05-14T18:02:35.076Z,19.06
2023-05-14T18:05:02.917Z,18.98
2023-05-14T18:07:30.406Z,18.86
2023-05-14T18:09:57.292Z,18.89
2023-05-14T18:12:25.858Z,18.88
2023-05-14T18:14:52.556Z,18.79
2023-05-14T18:17:19.268Z,18.59
2023-05-14T18:19:45.996Z,18.42
2023-05-14T18:22:12.941Z,18.36
2023-05-14T18:24:39.645Z,18.13
2023-05-14T18:27:06.468Z,18.27
2023-05-14T18:29:33.130Z,18.24
2023-05-14T18:31:59.798Z,18.20
2023-05-14T18:34:26.651Z,18.10
2023-05-14T18:36:53.460Z,18.06
2023-05-14T18:39:20.210Z,17.87
2023-05-14T18:41:46.949Z,17.83
2023-05-14T18:44:13.690Z,17.78
2023-05-14T18:46:40.563Z,17.73
2023-05-14T18:49:07.293Z,17.79
2023-05-14T18:51:33.953Z,17.72
2023-05-14T18:54:00.736Z,17.70
2023-05-14T18:56:27.394Z,17.68
2023-05-14T18:58:54.480Z,17.66
2023-05-14T19:01:21.456Z,17.56
2023-05-14T19:03:48.315Z,17.45
2023-05-14T19:06:15.172Z,17.41
2023-05-14T19:08:41.855Z,17.47
2023-05-14T19:11:08.643Z,17.38
2023-05-14T19:13:35.244Z,17.23
2023-05-14T19:16:01.976Z,17.22
2023-05-14T19:18:41.988Z,17.31
2023-05-14T19:21:08.798Z,17.27
2023-05-14T19:23:35.705Z,17.16
2023-05-14T19:26:02.338Z,17.16
2023-05-14T19:28:28.956Z,17.07
2023-05-14T19:30:57.384Z,17.18
2023-05-14T19:33:24.395Z,17.18
2023-05-14T19:35:51.415Z,17.56
2023-05-14T19:38:19.245Z,17.62
2023-05-14T19:40:45.931Z,17.76
2023-05-14T19:43:12.644Z,17.79
2023-05-14T19:45:39.464Z,17.88
2023-05-14T19:48:06.884Z,17.84
2023-05-14T19:50:33.874Z,17.77
2023-05-14T19:53:01.209Z,17.73
2023-05-14T19:55:27.905Z,17.57
2023-05-14T19:57:54.529Z,17.35
2023-05-14T20:00:22.482Z,17.10
2023-05-14T20:02:49.292Z,16.97
2023-05-14T20:05:16.743Z,16.92
2023-05-14T20:07:43.880Z,16.70
2023-05-14T20:10:10.955Z,16.69
2023-05-14T20:12:37.629Z,16.61
2023-05-14T20:15:04.573Z,16.64
2023-05-14T20:17:31.294Z,16.69
2023-05-14T20:20:01.580Z,16.77
2023-05-14T20:22:28.325Z,16.87
2023-05-14T20:24:55.035Z,16.98
2023-05-14T20:27:22.208Z,17.13
2023-05-14T20:29:51.465Z,17.34
2023-05-14T20:32:18.216Z,17.32
2023-05-14T20:34:44.957Z,17.23
2023-05-14T20:37:11.972Z,17.20
2023-05-14T20:39:38.621Z,17.16
2023-05-14T20:42:05.698Z,17.03
2023-05-14T20:44:32.467Z,17.06
2023-05-14T20:46:59.163Z,17.26
2023-05-14T20:49:25.999Z,17.16
2023-05-14T20:51:52.761Z,17.08
2023-05-14T20:54:19.352Z,17.02
2023-05-14T20:56:45.979Z,17.00
2023-05-14T20:59:12.646Z,16.77
2023-05-14T21:01:39.373Z,16.64
2023-05-14T21:04:06.327Z,16.50
2023-05-14T21:06:33.121Z,16.48
2023-05-14T21:08:59.836Z,16.51
2023-05-14T21:11:26.510Z,16.49
2023-05-14T21:13:53.181Z,16.67
2023-05-14T21:16:20.303Z,16.65
2023-05-14T21:18:47.163Z,16.70
2023-05-14T21:21:13.864Z,16.67
2023-05-14T21:23:40.594Z,16.63
2023-05-14T21:26:07.236Z,16.63
2023-05-14T21:28:33.919Z,16.72
2023-05-14T21:31:00.552Z,16.51
2023-05-14T21:33:27.165Z,16.43
2023-05-14T21:35:54.061Z,16.52
2023-05-14T21:38:20.839Z,16.24
2023-05-14T21:40:47.461Z,16.35
2023-05-14T21:43:14.258Z,16.62
2023-05-14T21:45:41.329Z,16.84
2023-05-14T21:48:08.120Z,16.80
2023-05-14T21:50:34.974Z,16.66
2023-05-14T21:53:01.661Z,16.62
2023-05-14T21:55:28.541Z,16.71
2023-05-14T21:57:55.180Z,16.60
2023-05-14T22:00:25.211Z,16.50
2023-05-14T22:02:55.267Z,16.36
2023-05-14T22:05:22.464Z,16.22
2023-05-14T22:07:49.346Z,16.17
2023-05-14T22:10:16.833Z,15.98
2023-05-14T22:12:44.621Z,16.03
2023-05-14T22:15:12.389Z,16.02
2023-05-14T22:17:39.259Z,15.99
2023-05-14T22:20:06.880Z,15.78
2023-05-14T22:22:34.278Z,15.92
2023-05-14T22:25:01.173Z,15.84
2023-05-14T22:27:27.971Z,15.90
2023-05-14T22:29:55.356Z,15.97
2023-05-14T22:32:22.153Z,15.97
2023-05-14T22:34:48.967Z,16.09
2023-05-14T22:37:15.805Z,16.15
2023-05-14T22:39:42.974Z,16.05
2023-05-14T22:42:09.760Z,16.11
2023-05-14T22:44:37.168Z,16.18
2023-05-14T22:47:07.415Z,16.27
2023-05-14T22:49:34.091Z,16.20
2023-05-14T22:52:01.450Z,16.41
2023-05-14T22:54:28.222Z,16.52
2023-05-14T22:56:54.842Z,16.52
2023-05-14T22:59:23.591Z,16.64
2023-05-14T23:01:50.826Z,16.64
2023-05-14T23:04:17.613Z,16.53
2023-05-14T23:06:44.577Z,16.47
2023-05-14T23:09:11.245Z,16.40
2023-05-14T23:11:37.996Z,16.20
2023-05-14T23:14:04.724Z,16.40
2023-05-14T23:16:31.999Z,16.29
2023-05-14T23:18:58.874Z,16.21
2023-05-14T23:21:25.749Z,16.18
2023-05-14T23:23:52.540Z,16.12
2023-05-14T23:26:19.214Z,16.15
2023-05-14T23:28:47.402Z,16.15
2023-05-14T23:31:14.103Z,16.09
2023-05-14T23:33:40.927Z,16.12
2023-05-14T23:36:08.142Z,16.08
2023-05-14T23:38:34.880Z,16.16
2023-05-14T23:41:01.600Z,16.08
2023-05-14T23:43:28.441Z,16.11
2023-05-14T23:45:55.344Z,15.92
2023-05-14T23:48:22.071Z,16.05
2023-05-14T23:50:48.732Z,16.01
2023-05-14T23:53:15.355Z,15.85
2023-05-14T23:55:42.006Z,15.68
2023-05-14T23:58:08.756Z,15.58
